sensor_id;sensor_type;location;lat;lon;timestamp;temperature;humidity
12889;DHT22;56848;49.896;11.424;2022-11-20T05:01:40;-2.50;99.90
12889;DHT22;56848;49.896;11.424;2022-11-20T05:04:06;-2.50;99.90
12889;DHT22;56848;49.896;11.424;2022-11-20T05:06:32;-2.40;99.90
12889;DHT22;56848;49.896;11.424;2022-11-20T05:08:58;-2.40;99.90
12889;DHT22;56848;49.896;11.424;2022-11-20T05:11:24;-2.50;99.90
12889;DHT22;56848;49.896;11.424;2022-11-20T05:13:50;-2.40;99.90
12889;DHT22;56848;49.896;11.424;2022-11-20T05:16:18;-2.30;99.90
12889;DHT22;56848;49.896;11.424;2022-11-20T05:18:45;-2.30;99.90
12889;DHT22;56848;49.896;11.424;2022-11-20T05:21:11;-2.30;99.90
12889;DHT22;56848;49.896;11.424;2022-11-20T05:23:38;-2.20;99.90
12889;DHT22;56848;49.896;11.424;2022-11-20T05:26:05;-2.30;99.90
12889;DHT22;56848;49.896;11.424;2022-11-20T05:28:31;-1.90;99.90
12889;DHT22;56848;49.896;11.424;2022-11-20T05:31:07;-2.10;99.90
12889;DHT22;56848;49.896;11.424;2022-11-20T05:33:34;-2.10;99.90
12889;DHT22;56848;49.896;11.424;2022-11-20T05:36:00;-2.20;99.90
12889;DHT22;56848;49.896;11.424;2022-11-20T05:38:25;-2.10;99.90
12889;DHT22;56848;49.896;11.424;2022-11-20T05:40:51;-2.10;99.90
12889;DHT22;56848;49.896;11.424;2022-11-20T05:43:16;-2.20;99.90
12889;DHT22;56848;49.896;11.424;2022-11-20T05:45:42;-2.10;99.90
12889;DHT22;56848;49.896;11.424;2022-11-20T05:48:07;-1.90;99.90
12889;DHT22;56848;49.896;11.424;2022-11-20T05:50:33;-2.00;99.90
12889;DHT22;56848;49.896;11.424;2022-11-20T05:52:59;-2.10;99.90
12889;DHT22;56848;49.896;11.424;2022-11-20T05:55:25;-2.20;99.90
12889;DHT22;56848;49.896;11.424;2022-11-20T05:57:55;-2.10;99.90
12889;DHT22;56848;49.896;11.424;2022-11-20T06:00:21;-2.10;99.90
12889;DHT22;56848;49.896;11.424;2022-11-20T06:02:46;-2.20;99.90
12889;DHT22;56848;49.896;11.424;2022-11-20T06:05:12;-2.30;99.90
12889;DHT22;56848;49.896;11.424;2022-11-20T06:07:37;-2.10;99.90
12889;DHT22;56848;49.896;11.424;2022-11-20T06:10:03;-2.10;99.90
12889;DHT22;56848;49.896;11.424;2022-11-20T06:12:31;-2.00;99.90
12889;DHT22;56848;49.896;11.424;2022-11-20T06:14:57;-2.00;99.90
12889;DHT22;56848;49.896;11.424;2022-11-20T06:17:22;-2.00;99.90
12889;DHT22;56848;49.896;11.424;2022-11-20T06:19:48;-2.00;99.90
12889;DHT22;56848;49.896;11.424;2022-11-20T06:22:13;-2.00;99.90
12889;DHT22;56848;49.896;11.424;2022-11-20T06:24:39;-2.00;99.90
12889;DHT22;56848;49.896;11.424;2022-11-20T06:27:04;-1.80;99.90
12889;DHT22;56848;49.896;11.424;2022-11-20T06:29:30;-1.80;99.90
12889;DHT22;56848;49.896;11.424;2022-11-20T06:31:55;-1.70;99.90
12889;DHT22;56848;49.896;11.424;2022-11-20T06:34:21;-1.60;99.90
12889;DHT22;56848;49.896;11.424;2022-11-20T06:36:46;-1.70;99.90
12889;DHT22;56848;49.896;11.424;2022-11-20T06:39:12;-1.80;99.90
12889;DHT22;56848;49.896;11.424;2022-11-20T06:41:37;-1.80;99.90
12889;DHT22;56848;49.896;11.424;2022-11-20T06:44:04;-1.90;99.90
12889;DHT22;56848;49.896;11.424;2022-11-20T06:46:30;-1.90;99.90
12889;DHT22;56848;49.896;11.424;2022-11-20T06:48:56;-2.00;99.90
12889;DHT22;56848;49.896;11.424;2022-11-20T06:51:23;-2.00;99.90
12889;DHT22;56848;49.896;11.424;2022-11-20T06:53:49;-1.90;99.90
12889;DHT22;56848;49.896;11.424;2022-11-20T06:56:14;-1.90;99.90
12889;DHT22;56848;49.896;11.424;2022-11-20T06:58:40;-1.70;99.90
12889;DHT22;56848;49.896;11.424;2022-11-20T07:01:09;-1.70;99.90
12889;DHT22;56848;49.896;11.424;2022-11-20T07:03:35;-1.60;99.90
12889;DHT22;56848;49.896;11.424;2022-11-20T07:06:02;-1.60;99.90
12889;DHT22;56848;49.896;11.424;2022-11-20T07:08:29;-1.60;99.90
12889;DHT22;56848;49.896;11.424;2022-11-20T07:10:59;-1.50;99.90
12889;DHT22;56848;49.896;11.424;2022-11-20T07:13:26;-1.60;99.90
12889;DHT22;56848;49.896;11.424;2022-11-20T07:15:52;-1.50;99.90
12889;DHT22;56848;49.896;11.424;2022-11-20T07:18:17;-1.60;99.90
12889;DHT22;56848;49.896;11.424;2022-11-20T07:20:43;-1.50;99.90
12889;DHT22;56848;49.896;11.424;2022-11-20T07:23:08;-1.40;99.90
12889;DHT22;56848;49.896;11.424;2022-11-20T07:25:34;-1.40;99.90
12889;DHT22;56848;49.896;11.424;2022-11-20T07:28:00;-1.30;99.90
12889;DHT22;56848;49.896;11.424;2022-11-20T07:30:27;-1.40;99.90
12889;DHT22;56848;49.896;11.424;2022-11-20T07:32:54;-1.40;99.90
12889;DHT22;56848;49.896;11.424;2022-11-20T07:35:20;-1.40;99.90
12889;DHT22;56848;49.896;11.424;2022-11-20T07:37:45;-1.50;99.90
12889;DHT22;56848;49.896;11.424;2022-11-20T07:40:13;-1.60;99.90
12889;DHT22;56848;49.896;11.424;2022-11-20T07:42:38;-1.60;99.90
12889;DHT22;56848;49.896;11.424;2022-11-20T07:45:04;-1.60;99.90
12889;DHT22;56848;49.896;11.424;2022-11-20T07:47:35;-1.50;99.90
12889;DHT22;56848;49.896;11.424;2022-11-20T07:50:01;-1.50;99.90
12889;DHT22;56848;49.896;11.424;2022-11-20T07:52:28;-1.40;99.90
12889;DHT22;56848;49.896;11.424;2022-11-20T07:54:53;-1.30;99.90
12889;DHT22;56848;49.896;11.424;2022-11-20T07:57:19;-1.30;99.90
12889;DHT22;56848;49.896;11.424;2022-11-20T07:59:44;-1.30;99.90
12889;DHT22;56848;49.896;11.424;2022-11-20T08:02:11;-1.20;99.90
12889;DHT22;56848;49.896;11.424;2022-11-20T08:04:36;-1.20;99.90
12889;DHT22;56848;49.896;11.424;2022-11-20T08:07:02;-1.20;99.90
12889;DHT22;56848;49.896;11.424;2022-11-20T08:09:27;-1.10;99.90
12889;DHT22;56848;49.896;11.424;2022-11-20T08:11:54;-1.00;99.90
12889;DHT22;56848;49.896;11.424;2022-11-20T08:14:38;-1.00;99.90
12889;DHT22;56848;49.896;11.424;2022-11-20T08:17:04;-1.10;99.90
12889;DHT22;56848;49.896;11.424;2022-11-20T08:19:30;-1.00;99.90
12889;DHT22;56848;49.896;11.424;2022-11-20T08:21:55;-0.90;99.90
12889;DHT22;56848;49.896;11.424;2022-11-20T08:24:21;-0.80;99.90
12889;DHT22;56848;49.896;11.424;2022-11-20T08:26:46;-0.80;99.90
12889;DHT22;56848;49.896;11.424;2022-11-20T08:29:12;-0.70;99.90
12889;DHT22;56848;49.896;11.424;2022-11-20T08:31:38;-0.80;99.90
12889;DHT22;56848;49.896;11.424;2022-11-20T08:34:03;-0.90;99.90
12889;DHT22;56848;49.896;11.424;2022-11-20T08:36:32;-0.80;99.90
12889;DHT22;56848;49.896;11.424;2022-11-20T08:38:57;-0.80;99.90
12889;DHT22;56848;49.896;11.424;2022-11-20T08:41:23;-0.60;99.90
12889;DHT22;56848;49.896;11.424;2022-11-20T08:43:49;-0.60;99.90
12889;DHT22;56848;49.896;11.424;2022-11-20T08:46:16;-0.70;99.90
12889;DHT22;56848;49.896;11.424;2022-11-20T08:48:42;-0.50;99.90
12889;DHT22;56848;49.896;11.424;2022-11-20T08:51:08;-0.40;99.90
12889;DHT22;56848;49.896;11.424;2022-11-20T08:53:34;-0.50;99.90
12889;DHT22;56848;49.896;11.424;2022-11-20T08:55:59;-0.60;99.90
12889;DHT22;56848;49.896;11.424;2022-11-20T08:58:26;-0.40;99.90
12889;DHT22;56848;49.896;11.424;2022-11-20T09:00:52;-0.50;99.90
12889;DHT22;56848;49.896;11.424;2022-11-20T09:03:18;-0.40;99.90
12889;DHT22;56848;49.896;11.424;2022-11-20T09:05:43;-0.30;99.90
12889;DHT22;56848;49.896;11.424;2022-11-20T09:08:09;-0.10;99.90
12889;DHT22;56848;49.896;11.424;2022-11-20T09:10:34;0.00;99.90
12889;DHT22;56848;49.896;11.424;2022-11-20T09:13:00;-0.10;99.90
12889;DHT22;56848;49.896;11.424;2022-11-20T09:15:27;-0.10;99.90
12889;DHT22;56848;49.896;11.424;2022-11-20T09:17:57;0.10;99.90
12889;DHT22;56848;49.896;11.424;2022-11-20T09:20:24;0.10;99.90
12889;DHT22;56848;49.896;11.424;2022-11-20T09:22:50;0.00;99.90
12889;DHT22;56848;49.896;11.424;2022-11-20T09:25:16;-0.10;99.90
12889;DHT22;56848;49.896;11.424;2022-11-20T09:27:41;0.00;99.90
12889;DHT22;56848;49.896;11.424;2022-11-20T09:30:09;0.10;99.90
12889;DHT22;56848;49.896;11.424;2022-11-20T09:32:35;0.10;99.90
12889;DHT22;56848;49.896;11.424;2022-11-20T09:35:01;0.00;99.90
12889;DHT22;56848;49.896;11.424;2022-11-20T09:37:27;0.10;99.90
12889;DHT22;56848;49.896;11.424;2022-11-20T09:39:52;-0.10;99.90
12889;DHT22;56848;49.896;11.424;2022-11-20T09:48:29;0.10;99.90
12889;DHT22;56848;49.896;11.424;2022-11-20T09:56:28;0.40;99.90
12889;DHT22;56848;49.896;11.424;2022-11-20T09:58:57;0.60;99.90
12889;DHT22;56848;49.896;11.424;2022-11-20T10:01:29;0.60;99.90
12889;DHT22;56848;49.896;11.424;2022-11-20T10:06:47;0.60;99.90
12889;DHT22;56848;49.896;11.424;2022-11-20T10:14:55;0.60;99.90
12889;DHT22;56848;49.896;11.424;2022-11-20T10:29:36;0.90;99.90
12889;DHT22;56848;49.896;11.424;2022-11-20T10:32:24;1.00;99.90
12889;DHT22;56848;49.896;11.424;2022-11-20T10:35:04;1.00;99.90
12889;DHT22;56848;49.896;11.424;2022-11-20T10:37:35;1.00;99.90
12889;DHT22;56848;49.896;11.424;2022-11-20T10:42:53;0.90;99.90
12889;DHT22;56848;49.896;11.424;2022-11-20T10:47:54;1.00;99.90
12889;DHT22;56848;49.896;11.424;2022-11-20T10:50:21;0.90;99.90
12889;DHT22;56848;49.896;11.424;2022-11-20T10:56:10;1.00;99.90
12889;DHT22;56848;49.896;11.424;2022-11-20T11:01:16;1.00;99.90
12889;DHT22;56848;49.896;11.424;2022-11-20T11:03:43;1.00;99.90
12889;DHT22;56848;49.896;11.424;2022-11-20T11:06:51;1.00;99.90
12889;DHT22;56848;49.896;11.424;2022-11-20T11:09:00;1.00;99.90
12889;DHT22;56848;49.896;11.424;2022-11-20T11:11:33;1.00;99.90
12889;DHT22;56848;49.896;11.424;2022-11-20T11:14:06;1.00;99.90
12889;DHT22;56848;49.896;11.424;2022-11-20T11:19:11;0.90;99.90
12889;DHT22;56848;49.896;11.424;2022-11-20T11:21:37;1.00;99.90
12889;DHT22;56848;49.896;11.424;2022-11-20T11:24:25;1.20;99.90
12889;DHT22;56848;49.896;11.424;2022-11-20T11:27:00;1.20;99.90
12889;DHT22;56848;49.896;11.424;2022-11-20T11:29:30;1.40;99.90
12889;DHT22;56848;49.896;11.424;2022-11-20T11:32:11;1.40;99.90
12889;DHT22;56848;49.896;11.424;2022-11-20T11:34:37;1.40;99.90
12889;DHT22;56848;49.896;11.424;2022-11-20T11:37:03;1.40;99.90
12889;DHT22;56848;49.896;11.424;2022-11-20T11:39:31;1.40;99.90
12889;DHT22;56848;49.896;11.424;2022-11-20T11:41:58;1.30;99.90
12889;DHT22;56848;49.896;11.424;2022-11-20T11:44:30;1.40;99.90
12889;DHT22;56848;49.896;11.424;2022-11-20T11:47:29;1.50;99.90
12889;DHT22;56848;49.896;11.424;2022-11-20T11:50:26;1.30;99.90
12889;DHT22;56848;49.896;11.424;2022-11-20T11:53:13;1.20;99.90
12889;DHT22;56848;49.896;11.424;2022-11-20T12:04:28;1.20;99.90
12889;DHT22;56848;49.896;11.424;2022-11-20T12:07:11;1.30;99.90
12889;DHT22;56848;49.896;11.424;2022-11-20T12:09:43;1.30;99.90
12889;DHT22;56848;49.896;11.424;2022-11-20T12:12:21;1.20;99.90
12889;DHT22;56848;49.896;11.424;2022-11-20T12:14:48;1.20;99.90
12889;DHT22;56848;49.896;11.424;2022-11-20T12:17:16;1.20;99.90
12889;DHT22;56848;49.896;11.424;2022-11-20T12:19:43;1.20;99.90
12889;DHT22;56848;49.896;11.424;2022-11-20T12:24:55;1.10;99.90
12889;DHT22;56848;49.896;11.424;2022-11-20T12:30:16;1.20;99.90
12889;DHT22;56848;49.896;11.424;2022-11-20T12:47:59;1.30;99.90
12889;DHT22;56848;49.896;11.424;2022-11-20T13:07:40;1.30;99.90
12889;DHT22;56848;49.896;11.424;2022-11-20T13:10:14;1.30;99.90
12889;DHT22;56848;49.896;11.424;2022-11-20T13:12:47;1.30;99.90
12889;DHT22;56848;49.896;11.424;2022-11-20T13:18:11;1.30;99.90
12889;DHT22;56848;49.896;11.424;2022-11-20T13:20:43;1.40;99.90
12889;DHT22;56848;49.896;11.424;2022-11-20T13:23:08;1.30;99.90
12889;DHT22;56848;49.896;11.424;2022-11-20T13:25:37;1.30;99.90
12889;DHT22;56848;49.896;11.424;2022-11-20T13:30:36;1.20;99.90
12889;DHT22;56848;49.896;11.424;2022-11-20T13:33:06;1.20;99.90
12889;DHT22;56848;49.896;11.424;2022-11-20T13:35:35;1.20;99.90
12889;DHT22;56848;49.896;11.424;2022-11-20T13:38:02;1.20;99.90
12889;DHT22;56848;49.896;11.424;2022-11-20T13:40:28;1.10;99.90
12889;DHT22;56848;49.896;11.424;2022-11-20T13:47:49;1.20;99.90
12889;DHT22;56848;49.896;11.424;2022-11-20T13:50:15;1.30;99.90
12889;DHT22;56848;49.896;11.424;2022-11-20T13:52:59;1.20;99.90
12889;DHT22;56848;49.896;11.424;2022-11-20T14:01:14;1.20;99.90
12889;DHT22;56848;49.896;11.424;2022-11-20T14:03:41;1.20;99.90
12889;DHT22;56848;49.896;11.424;2022-11-20T14:06:25;1.20;99.90
12889;DHT22;56848;49.896;11.424;2022-11-20T14:08:52;1.20;99.90
12889;DHT22;56848;49.896;11.424;2022-11-20T14:16:40;1.20;99.90
12889;DHT22;56848;49.896;11.424;2022-11-20T14:21:52;1.10;99.90
12889;DHT22;56848;49.896;11.424;2022-11-20T14:24:23;1.10;99.90
12889;DHT22;56848;49.896;11.424;2022-11-20T14:26:50;1.10;99.90
12889;DHT22;56848;49.896;11.424;2022-11-20T14:29:22;1.10;99.90
12889;DHT22;56848;49.896;11.424;2022-11-20T14:31:52;1.00;99.90
12889;DHT22;56848;49.896;11.424;2022-11-20T14:34:22;1.00;99.90
12889;DHT22;56848;49.896;11.424;2022-11-20T14:36:49;1.00;99.90
12889;DHT22;56848;49.896;11.424;2022-11-20T14:39:21;1.00;99.90
12889;DHT22;56848;49.896;11.424;2022-11-20T14:41:53;1.00;99.90
12889;DHT22;56848;49.896;11.424;2022-11-20T14:44:33;1.00;99.90
12889;DHT22;56848;49.896;11.424;2022-11-20T14:47:03;1.00;99.90
12889;DHT22;56848;49.896;11.424;2022-11-20T14:49:30;1.00;99.90
12889;DHT22;56848;49.896;11.424;2022-11-20T14:52:18;1.00;99.90
12889;DHT22;56848;49.896;11.424;2022-11-20T14:57:26;1.00;99.90
12889;DHT22;56848;49.896;11.424;2022-11-20T15:00:24;1.00;99.90
12889;DHT22;56848;49.896;11.424;2022-11-20T15:02:50;0.90;99.90
12889;DHT22;56848;49.896;11.424;2022-11-20T15:05:19;0.90;99.90
12889;DHT22;56848;49.896;11.424;2022-11-20T15:07:47;1.00;99.90
12889;DHT22;56848;49.896;11.424;2022-11-20T15:10:23;1.00;99.90
12889;DHT22;56848;49.896;11.424;2022-11-20T15:12:59;1.00;99.90
12889;DHT22;56848;49.896;11.424;2022-11-20T15:18:20;0.90;99.90
12889;DHT22;56848;49.896;11.424;2022-11-20T15:20:47;0.90;99.90
12889;DHT22;56848;49.896;11.424;2022-11-20T15:23:14;1.00;99.90
12889;DHT22;56848;49.896;11.424;2022-11-20T15:25:41;0.90;99.90
12889;DHT22;56848;49.896;11.424;2022-11-20T15:28:21;0.90;99.90
12889;DHT22;56848;49.896;11.424;2022-11-20T15:30:49;0.90;99.90
12889;DHT22;56848;49.896;11.424;2022-11-20T15:33:16;0.90;99.90
12889;DHT22;56848;49.896;11.424;2022-11-20T15:35:42;0.90;99.90
12889;DHT22;56848;49.896;11.424;2022-11-20T15:38:07;0.90;99.90
12889;DHT22;56848;49.896;11.424;2022-11-20T15:40:33;0.90;99.90
12889;DHT22;56848;49.896;11.424;2022-11-20T15:42:59;0.90;99.90
12889;DHT22;56848;49.896;11.424;2022-11-20T15:45:40;0.90;99.90
12889;DHT22;56848;49.896;11.424;2022-11-20T15:48:12;0.90;99.90
12889;DHT22;56848;49.896;11.424;2022-11-20T15:51:01;0.90;99.90
12889;DHT22;56848;49.896;11.424;2022-11-20T15:53:28;0.90;99.90
12889;DHT22;56848;49.896;11.424;2022-11-20T15:55:54;1.00;99.90
12889;DHT22;56848;49.896;11.424;2022-11-20T15:58:19;1.00;99.90
12889;DHT22;56848;49.896;11.424;2022-11-20T16:00:45;1.00;99.90
12889;DHT22;56848;49.896;11.424;2022-11-20T16:03:11;0.90;99.90
12889;DHT22;56848;49.896;11.424;2022-11-20T16:05:37;0.90;99.90
12889;DHT22;56848;49.896;11.424;2022-11-20T16:08:03;0.90;99.90
12889;DHT22;56848;49.896;11.424;2022-11-20T16:10:28;0.90;99.90
12889;DHT22;56848;49.896;11.424;2022-11-20T16:12:54;1.00;99.90
12889;DHT22;56848;49.896;11.424;2022-11-20T16:15:38;1.00;99.90
12889;DHT22;56848;49.896;11.424;2022-11-20T16:18:18;0.90;99.90
12889;DHT22;56848;49.896;11.424;2022-11-20T16:20:46;0.90;99.90
12889;DHT22;56848;49.896;11.424;2022-11-20T16:23:12;0.90;99.90
12889;DHT22;56848;49.896;11.424;2022-11-20T16:25:38;1.00;99.90
12889;DHT22;56848;49.896;11.424;2022-11-20T16:28:04;0.90;99.90
12889;DHT22;56848;49.896;11.424;2022-11-20T16:30:31;0.90;99.90
12889;DHT22;56848;49.896;11.424;2022-11-20T16:32:58;0.90;99.90
12889;DHT22;56848;49.896;11.424;2022-11-20T16:35:25;0.90;99.90
12889;DHT22;56848;49.896;11.424;2022-11-20T16:37:52;0.90;99.90
12889;DHT22;56848;49.896;11.424;2022-11-20T16:40:17;0.90;99.90
12889;DHT22;56848;49.896;11.424;2022-11-20T16:42:43;0.90;99.90
12889;DHT22;56848;49.896;11.424;2022-11-20T16:45:09;0.80;99.90
12889;DHT22;56848;49.896;11.424;2022-11-20T16:47:35;0.80;99.90
12889;DHT22;56848;49.896;11.424;2022-11-20T16:50:01;0.80;99.90
12889;DHT22;56848;49.896;11.424;2022-11-20T16:52:27;0.80;99.90
12889;DHT22;56848;49.896;11.424;2022-11-20T16:54:53;0.70;99.90
12889;DHT22;56848;49.896;11.424;2022-11-20T16:57:18;0.70;99.90
12889;DHT22;56848;49.896;11.424;2022-11-20T16:59:44;0.70;99.90
12889;DHT22;56848;49.896;11.424;2022-11-20T17:02:09;0.70;99.90
12889;DHT22;56848;49.896;11.424;2022-11-20T17:04:36;0.70;99.90
12889;DHT22;56848;49.896;11.424;2022-11-20T17:07:01;0.60;99.90
12889;DHT22;56848;49.896;11.424;2022-11-20T17:09:27;0.60;99.90
12889;DHT22;56848;49.896;11.424;2022-11-20T17:11:53;0.60;99.90
12889;DHT22;56848;49.896;11.424;2022-11-20T17:14:19;0.60;99.90
12889;DHT22;56848;49.896;11.424;2022-11-20T17:16:44;0.60;99.90
12889;DHT22;56848;49.896;11.424;2022-11-20T17:19:11;0.70;99.90
12889;DHT22;56848;49.896;11.424;2022-11-20T17:21:37;0.70;99.90
12889;DHT22;56848;49.896;11.424;2022-11-20T17:24:05;0.60;99.90
12889;DHT22;56848;49.896;11.424;2022-11-20T17:26:32;0.60;99.90
12889;DHT22;56848;49.896;11.424;2022-11-20T17:31:26;0.60;99.90
12889;DHT22;56848;49.896;11.424;2022-11-20T17:33:52;0.60;99.90
12889;DHT22;56848;49.896;11.424;2022-11-20T17:36:19;0.50;99.90
12889;DHT22;56848;49.896;11.424;2022-11-20T17:38:44;0.60;99.90
12889;DHT22;56848;49.896;11.424;2022-11-20T17:41:18;0.60;99.90
12889;DHT22;56848;49.896;11.424;2022-11-20T17:43:45;0.60;99.90
12889;DHT22;56848;49.896;11.424;2022-11-20T17:46:16;0.60;99.90
12889;DHT22;56848;49.896;11.424;2022-11-20T17:48:43;0.60;99.90
12889;DHT22;56848;49.896;11.424;2022-11-20T17:53:42;0.60;99.90
12889;DHT22;56848;49.896;11.424;2022-11-20T17:56:08;0.60;99.90
12889;DHT22;56848;49.896;11.424;2022-11-20T17:58:53;0.70;99.90
12889;DHT22;56848;49.896;11.424;2022-11-20T18:01:19;0.70;99.90
12889;DHT22;56848;49.896;11.424;2022-11-20T18:03:45;0.70;99.90
12889;DHT22;56848;49.896;11.424;2022-11-20T18:08:41;0.80;99.90
12889;DHT22;56848;49.896;11.424;2022-11-20T18:11:12;0.80;99.90
12889;DHT22;56848;49.896;11.424;2022-11-20T18:13:39;0.80;99.90
12889;DHT22;56848;49.896;11.424;2022-11-20T18:16:25;0.80;99.90
12889;DHT22;56848;49.896;11.424;2022-11-20T18:18:55;0.90;99.90
12889;DHT22;56848;49.896;11.424;2022-11-20T18:21:22;0.90;99.90
12889;DHT22;56848;49.896;11.424;2022-11-20T18:23:48;0.90;99.90
12889;DHT22;56848;49.896;11.424;2022-11-20T18:26:14;0.90;99.90
12889;DHT22;56848;49.896;11.424;2022-11-20T18:28:40;0.90;99.90
12889;DHT22;56848;49.896;11.424;2022-11-20T18:31:06;0.90;99.90
12889;DHT22;56848;49.896;11.424;2022-11-20T18:33:33;0.90;99.90
12889;DHT22;56848;49.896;11.424;2022-11-20T18:36:11;0.90;99.90
12889;DHT22;56848;49.896;11.424;2022-11-20T18:38:39;0.90;99.90
12889;DHT22;56848;49.896;11.424;2022-11-20T18:41:06;1.00;99.90
12889;DHT22;56848;49.896;11.424;2022-11-20T18:43:33;1.00;99.90
12889;DHT22;56848;49.896;11.424;2022-11-20T18:46:17;1.00;99.90
12889;DHT22;56848;49.896;11.424;2022-11-20T18:48:44;1.00;99.90
12889;DHT22;56848;49.896;11.424;2022-11-20T18:51:10;1.00;99.90
12889;DHT22;56848;49.896;11.424;2022-11-20T18:53:38;1.00;99.90
12889;DHT22;56848;49.896;11.424;2022-11-20T18:56:05;1.00;99.90
12889;DHT22;56848;49.896;11.424;2022-11-20T18:58:30;1.00;99.90
12889;DHT22;56848;49.896;11.424;2022-11-20T19:01:03;1.00;99.90
12889;DHT22;56848;49.896;11.424;2022-11-20T19:03:29;1.00;99.90
12889;DHT22;56848;49.896;11.424;2022-11-20T19:05:55;1.00;99.90
12889;DHT22;56848;49.896;11.424;2022-11-20T19:08:20;1.00;99.90
12889;DHT22;56848;49.896;11.424;2022-11-20T19:10:46;1.00;99.90
12889;DHT22;56848;49.896;11.424;2022-11-20T19:13:11;1.00;99.90
12889;DHT22;56848;49.896;11.424;2022-11-20T19:15:37;1.00;99.90
12889;DHT22;56848;49.896;11.424;2022-11-20T19:18:02;1.00;99.90
12889;DHT22;56848;49.896;11.424;2022-11-20T19:20:28;1.00;99.90
12889;DHT22;56848;49.896;11.424;2022-11-20T19:22:54;1.10;99.90
12889;DHT22;56848;49.896;11.424;2022-11-20T19:25:19;1.10;99.90
12889;DHT22;56848;49.896;11.424;2022-11-20T19:27:45;1.10;99.90
12889;DHT22;56848;49.896;11.424;2022-11-20T19:30:11;1.00;99.90
12889;DHT22;56848;49.896;11.424;2022-11-20T19:32:36;1.10;99.90
12889;DHT22;56848;49.896;11.424;2022-11-20T19:35:02;1.10;99.90
12889;DHT22;56848;49.896;11.424;2022-11-20T19:37:28;1.00;99.90
12889;DHT22;56848;49.896;11.424;2022-11-20T19:39:56;1.00;99.90
12889;DHT22;56848;49.896;11.424;2022-11-20T19:42:23;1.00;99.90
12889;DHT22;56848;49.896;11.424;2022-11-20T19:44:49;1.00;99.90
12889;DHT22;56848;49.896;11.424;2022-11-20T19:47:15;1.10;99.90
12889;DHT22;56848;49.896;11.424;2022-11-20T19:49:41;1.20;99.90
12889;DHT22;56848;49.896;11.424;2022-11-20T19:52:06;1.20;99.90
12889;DHT22;56848;49.896;11.424;2022-11-20T19:54:32;1.20;99.90
12889;DHT22;56848;49.896;11.424;2022-11-20T19:56:57;1.20;99.90
12889;DHT22;56848;49.896;11.424;2022-11-20T19:59:23;1.20;99.90
12889;DHT22;56848;49.896;11.424;2022-11-20T20:01:49;1.20;99.90
12889;DHT22;56848;49.896;11.424;2022-11-20T20:04:14;1.10;99.90
12889;DHT22;56848;49.896;11.424;2022-11-20T20:06:40;1.20;99.90
12889;DHT22;56848;49.896;11.424;2022-11-20T20:09:11;1.20;99.90
12889;DHT22;56848;49.896;11.424;2022-11-20T20:11:37;1.20;99.90
12889;DHT22;56848;49.896;11.424;2022-11-20T20:14:09;1.20;99.90
12889;DHT22;56848;49.896;11.424;2022-11-20T20:16:37;1.30;99.90
12889;DHT22;56848;49.896;11.424;2022-11-20T20:19:04;1.30;99.90
12889;DHT22;56848;49.896;11.424;2022-11-20T20:21:32;1.30;99.90
12889;DHT22;56848;49.896;11.424;2022-11-20T20:23:58;1.30;99.90
12889;DHT22;56848;49.896;11.424;2022-11-20T20:26:26;1.30;99.90
12889;DHT22;56848;49.896;11.424;2022-11-20T20:28:52;1.40;99.90
12889;DHT22;56848;49.896;11.424;2022-11-20T20:31:22;1.40;99.90
12889;DHT22;56848;49.896;11.424;2022-11-20T20:33:48;1.40;99.90
12889;DHT22;56848;49.896;11.424;2022-11-20T20:36:15;1.50;99.90
12889;DHT22;56848;49.896;11.424;2022-11-20T20:38:42;1.60;99.90
12889;DHT22;56848;49.896;11.424;2022-11-20T20:41:08;1.60;99.90
12889;DHT22;56848;49.896;11.424;2022-11-20T20:43:35;1.50;99.90
12889;DHT22;56848;49.896;11.424;2022-11-20T20:46:21;1.60;99.90
12889;DHT22;56848;49.896;11.424;2022-11-20T20:48:46;1.60;99.90
12889;DHT22;56848;49.896;11.424;2022-11-20T20:51:12;1.70;99.90
12889;DHT22;56848;49.896;11.424;2022-11-20T20:53:38;1.70;99.90
12889;DHT22;56848;49.896;11.424;2022-11-20T20:56:04;1.70;99.90
12889;DHT22;56848;49.896;11.424;2022-11-20T20:58:29;1.60;99.90
12889;DHT22;56848;49.896;11.424;2022-11-20T21:01:06;1.60;99.90
12889;DHT22;56848;49.896;11.424;2022-11-20T21:03:32;1.60;99.90
12889;DHT22;56848;49.896;11.424;2022-11-20T21:05:58;1.60;99.90
12889;DHT22;56848;49.896;11.424;2022-11-20T21:08:24;1.60;99.90
12889;DHT22;56848;49.896;11.424;2022-11-20T21:10:53;1.60;99.90
12889;DHT22;56848;49.896;11.424;2022-11-20T21:13:20;1.60;99.90
12889;DHT22;56848;49.896;11.424;2022-11-20T21:15:48;1.60;99.90
12889;DHT22;56848;49.896;11.424;2022-11-20T21:18:15;1.50;99.90
12889;DHT22;56848;49.896;11.424;2022-11-20T21:20:42;1.60;99.90
12889;DHT22;56848;49.896;11.424;2022-11-20T21:23:27;1.60;99.90
12889;DHT22;56848;49.896;11.424;2022-11-20T21:25:52;1.60;99.90
12889;DHT22;56848;49.896;11.424;2022-11-20T21:28:18;1.60;99.90
12889;DHT22;56848;49.896;11.424;2022-11-20T21:30:44;1.60;99.90
12889;DHT22;56848;49.896;11.424;2022-11-20T21:33:09;1.60;99.90
12889;DHT22;56848;49.896;11.424;2022-11-20T21:35:35;1.60;99.90
12889;DHT22;56848;49.896;11.424;2022-11-20T21:38:02;1.60;99.90
12889;DHT22;56848;49.896;11.424;2022-11-20T21:40:28;1.60;99.90
12889;DHT22;56848;49.896;11.424;2022-11-20T21:42:53;1.70;99.90
12889;DHT22;56848;49.896;11.424;2022-11-20T21:45:19;1.70;99.90
12889;DHT22;56848;49.896;11.424;2022-11-20T21:47:48;1.80;99.90
12889;DHT22;56848;49.896;11.424;2022-11-20T21:50:14;1.80;99.90
12889;DHT22;56848;49.896;11.424;2022-11-20T21:52:39;1.80;99.90
12889;DHT22;56848;49.896;11.424;2022-11-20T21:55:05;1.80;99.90
12889;DHT22;56848;49.896;11.424;2022-11-20T21:57:34;1.80;99.90
12889;DHT22;56848;49.896;11.424;2022-11-20T22:00:01;1.80;99.90
